sensor_id;sensor_type;location;lat;lon;timestamp;P1;durP1;ratioP1;P2;durP2;ratioP2
46348;SDS011;32057;47.830;19.046;2022-08-11T00:01:59;0.70;;;0.68;;
46348;SDS011;32057;47.830;19.046;2022-08-11T00:04:26;2.20;;;0.70;;
46348;SDS011;32057;47.830;19.046;2022-08-11T00:06:58;0.60;;;0.60;;
46348;SDS011;32057;47.830;19.046;2022-08-11T00:09:31;2.50;;;1.65;;
46348;SDS011;32057;47.830;19.046;2022-08-11T00:14:30;1.15;;;0.77;;
46348;SDS011;32057;47.830;19.046;2022-08-11T00:16:59;0.77;;;0.70;;
46348;SDS011;32057;47.830;19.046;2022-08-11T00:19:37;0.40;;;0.40;;
46348;SDS011;32057;47.830;19.046;2022-08-11T00:22:06;1.08;;;0.82;;
46348;SDS011;32057;47.830;19.046;2022-08-11T00:24:35;0.77;;;0.77;;
46348;SDS011;32057;47.830;19.046;2022-08-11T00:27:03;1.02;;;0.85;;
46348;SDS011;32057;47.830;19.046;2022-08-11T00:29:29;0.80;;;0.80;;
46348;SDS011;32057;47.830;19.046;2022-08-11T00:31:56;1.60;;;0.80;;
46348;SDS011;32057;47.830;19.046;2022-08-11T00:34:30;0.80;;;0.80;;
46348;SDS011;32057;47.830;19.046;2022-08-11T00:37:01;0.43;;;0.43;;
46348;SDS011;32057;47.830;19.046;2022-08-11T00:39:32;0.57;;;0.57;;
46348;SDS011;32057;47.830;19.046;2022-08-11T00:42:09;0.50;;;0.50;;
46348;SDS011;32057;47.830;19.046;2022-08-11T00:50:28;1.60;;;0.80;;
46348;SDS011;32057;47.830;19.046;2022-08-11T00:53:07;0.85;;;0.85;;
46348;SDS011;32057;47.830;19.046;2022-08-11T01:07:01;0.60;;;0.50;;
46348;SDS011;32057;47.830;19.046;2022-08-11T01:15:33;0.98;;;0.60;;
46348;SDS011;32057;47.830;19.046;2022-08-11T01:27:01;1.10;;;1.00;;
46348;SDS011;32057;47.830;19.046;2022-08-11T01:39:36;0.52;;;0.52;;
46348;SDS011;32057;47.830;19.046;2022-08-11T01:46:27;0.80;;;0.80;;
46348;SDS011;32057;47.830;19.046;2022-08-11T01:49:09;0.80;;;0.80;;
46348;SDS011;32057;47.830;19.046;2022-08-11T01:54:58;0.60;;;0.60;;
46348;SDS011;32057;47.830;19.046;2022-08-11T02:00:32;1.00;;;1.00;;
46348;SDS011;32057;47.830;19.046;2022-08-11T02:03:19;0.98;;;0.98;;
46348;SDS011;32057;47.830;19.046;2022-08-11T02:12:35;0.82;;;0.50;;
46348;SDS011;32057;47.830;19.046;2022-08-11T02:15:13;1.23;;;0.90;;
46348;SDS011;32057;47.830;19.046;2022-08-11T02:18:09;1.23;;;0.90;;
46348;SDS011;32057;47.830;19.046;2022-08-11T02:20:43;0.77;;;0.70;;
46348;SDS011;32057;47.830;19.046;2022-08-11T02:26:21;0.85;;;0.80;;
46348;SDS011;32057;47.830;19.046;2022-08-11T02:50:32;0.73;;;0.70;;
46348;SDS011;32057;47.830;19.046;2022-08-11T02:53:17;1.92;;;1.00;;
46348;SDS011;32057;47.830;19.046;2022-08-11T02:55:57;1.30;;;0.80;;
46348;SDS011;32057;47.830;19.046;2022-08-11T03:07:30;0.80;;;0.80;;
46348;SDS011;32057;47.830;19.046;2022-08-11T03:12:48;1.52;;;1.15;;
46348;SDS011;32057;47.830;19.046;2022-08-11T03:16:06;0.95;;;0.80;;
46348;SDS011;32057;47.830;19.046;2022-08-11T03:19:02;0.73;;;0.73;;
46348;SDS011;32057;47.830;19.046;2022-08-11T03:21:41;0.88;;;0.88;;
46348;SDS011;32057;47.830;19.046;2022-08-11T03:27:04;0.85;;;0.85;;
46348;SDS011;32057;47.830;19.046;2022-08-11T03:34:59;1.30;;;1.30;;
46348;SDS011;32057;47.830;19.046;2022-08-11T03:37:35;0.55;;;0.55;;
46348;SDS011;32057;47.830;19.046;2022-08-11T03:48:48;0.57;;;0.57;;
46348;SDS011;32057;47.830;19.046;2022-08-11T03:57:17;0.88;;;0.88;;
46348;SDS011;32057;47.830;19.046;2022-08-11T04:00:28;0.70;;;0.70;;
46348;SDS011;32057;47.830;19.046;2022-08-11T04:03:05;1.88;;;1.02;;
46348;SDS011;32057;47.830;19.046;2022-08-11T04:14:33;0.98;;;0.90;;
46348;SDS011;32057;47.830;19.046;2022-08-11T04:20:49;0.80;;;0.80;;
46348;SDS011;32057;47.830;19.046;2022-08-11T04:48:52;0.70;;;0.70;;
46348;SDS011;32057;47.830;19.046;2022-08-11T05:01:11;0.85;;;0.85;;
46348;SDS011;32057;47.830;19.046;2022-08-11T05:12:52;0.90;;;0.90;;
46348;SDS011;32057;47.830;19.046;2022-08-11T05:15:23;0.70;;;0.70;;
46348;SDS011;32057;47.830;19.046;2022-08-11T05:18:19;1.33;;;1.23;;
46348;SDS011;32057;47.830;19.046;2022-08-11T05:21:08;1.25;;;0.80;;
46348;SDS011;32057;47.830;19.046;2022-08-11T05:24:03;0.73;;;0.50;;
46348;SDS011;32057;47.830;19.046;2022-08-11T05:26:54;1.58;;;1.10;;
46348;SDS011;32057;47.830;19.046;2022-08-11T05:29:45;0.90;;;0.85;;
46348;SDS011;32057;47.830;19.046;2022-08-11T05:32:39;3.70;;;1.75;;
46348;SDS011;32057;47.830;19.046;2022-08-11T05:35:27;0.82;;;0.82;;
46348;SDS011;32057;47.830;19.046;2022-08-11T05:38:15;0.65;;;0.65;;
46348;SDS011;32057;47.830;19.046;2022-08-11T05:41:03;7.15;;;4.05;;
46348;SDS011;32057;47.830;19.046;2022-08-11T05:43:49;4.95;;;3.05;;
46348;SDS011;32057;47.830;19.046;2022-08-11T05:46:38;5.90;;;3.88;;
46348;SDS011;32057;47.830;19.046;2022-08-11T05:49:24;3.08;;;2.78;;
46348;SDS011;32057;47.830;19.046;2022-08-11T05:52:15;4.00;;;3.05;;
46348;SDS011;32057;47.830;19.046;2022-08-11T05:55:03;8.43;;;5.15;;
46348;SDS011;32057;47.830;19.046;2022-08-11T05:57:48;6.20;;;4.50;;
46348;SDS011;32057;47.830;19.046;2022-08-11T06:00:19;3.03;;;2.45;;
46348;SDS011;32057;47.830;19.046;2022-08-11T06:02:49;7.43;;;4.47;;
46348;SDS011;32057;47.830;19.046;2022-08-11T06:05:19;3.17;;;2.00;;
46348;SDS011;32057;47.830;19.046;2022-08-11T06:07:46;3.13;;;2.03;;
46348;SDS011;32057;47.830;19.046;2022-08-11T06:10:13;1.92;;;1.02;;
46348;SDS011;32057;47.830;19.046;2022-08-11T06:12:51;1.40;;;1.30;;
46348;SDS011;32057;47.830;19.046;2022-08-11T06:15:19;1.20;;;0.80;;
46348;SDS011;32057;47.830;19.046;2022-08-11T06:17:45;0.98;;;0.82;;
46348;SDS011;32057;47.830;19.046;2022-08-11T06:20:13;1.15;;;1.02;;
46348;SDS011;32057;47.830;19.046;2022-08-11T06:22:41;0.90;;;0.90;;
46348;SDS011;32057;47.830;19.046;2022-08-11T06:25:09;0.70;;;0.70;;
46348;SDS011;32057;47.830;19.046;2022-08-11T06:27:36;0.98;;;0.88;;
46348;SDS011;32057;47.830;19.046;2022-08-11T06:30:05;1.10;;;1.00;;
46348;SDS011;32057;47.830;19.046;2022-08-11T06:32:37;0.68;;;0.68;;
46348;SDS011;32057;47.830;19.046;2022-08-11T06:35:50;0.73;;;0.60;;
46348;SDS011;32057;47.830;19.046;2022-08-11T06:38:14;0.80;;;0.70;;
46348;SDS011;32057;47.830;19.046;2022-08-11T06:41:06;1.92;;;0.75;;
46348;SDS011;32057;47.830;19.046;2022-08-11T06:43:58;1.55;;;0.88;;
46348;SDS011;32057;47.830;19.046;2022-08-11T06:46:38;1.40;;;0.98;;
46348;SDS011;32057;47.830;19.046;2022-08-11T06:49:09;4.55;;;1.23;;
46348;SDS011;32057;47.830;19.046;2022-08-11T06:51:55;2.28;;;1.05;;
46348;SDS011;32057;47.830;19.046;2022-08-11T06:54:25;0.73;;;0.73;;
46348;SDS011;32057;47.830;19.046;2022-08-11T06:56:53;7.68;;;1.00;;
46348;SDS011;32057;47.830;19.046;2022-08-11T06:59:37;0.57;;;0.57;;
46348;SDS011;32057;47.830;19.046;2022-08-11T07:02:27;0.73;;;0.60;;
46348;SDS011;32057;47.830;19.046;2022-08-11T07:05:01;2.42;;;0.90;;
46348;SDS011;32057;47.830;19.046;2022-08-11T07:13:13;0.60;;;0.60;;
46348;SDS011;32057;47.830;19.046;2022-08-11T07:16:00;2.40;;;0.80;;
46348;SDS011;32057;47.830;19.046;2022-08-11T07:18:27;1.75;;;0.60;;
46348;SDS011;32057;47.830;19.046;2022-08-11T07:21:28;1.55;;;1.00;;
46348;SDS011;32057;47.830;19.046;2022-08-11T07:24:16;0.50;;;0.50;;
46348;SDS011;32057;47.830;19.046;2022-08-11T07:27:04;2.40;;;0.50;;
46348;SDS011;32057;47.830;19.046;2022-08-11T07:29:50;0.60;;;0.60;;
46348;SDS011;32057;47.830;19.046;2022-08-11T07:32:23;0.40;;;0.40;;
46348;SDS011;32057;47.830;19.046;2022-08-11T07:34:57;0.40;;;0.40;;
46348;SDS011;32057;47.830;19.046;2022-08-11T07:37:43;0.63;;;0.52;;
46348;SDS011;32057;47.830;19.046;2022-08-11T07:40:15;0.50;;;0.50;;
46348;SDS011;32057;47.830;19.046;2022-08-11T07:42:47;0.38;;;0.38;;
46348;SDS011;32057;47.830;19.046;2022-08-11T07:45:14;0.40;;;0.40;;
46348;SDS011;32057;47.830;19.046;2022-08-11T07:48:00;0.52;;;0.52;;
46348;SDS011;32057;47.830;19.046;2022-08-11T07:50:45;0.45;;;0.45;;
46348;SDS011;32057;47.830;19.046;2022-08-11T07:53:29;0.60;;;0.60;;
46348;SDS011;32057;47.830;19.046;2022-08-11T07:55:58;0.93;;;0.50;;
46348;SDS011;32057;47.830;19.046;2022-08-11T07:58:26;0.45;;;0.45;;
46348;SDS011;32057;47.830;19.046;2022-08-11T08:01:17;0.75;;;0.40;;
46348;SDS011;32057;47.830;19.046;2022-08-11T08:04:03;0.52;;;0.52;;
46348;SDS011;32057;47.830;19.046;2022-08-11T08:06:49;0.40;;;0.32;;
46348;SDS011;32057;47.830;19.046;2022-08-11T08:09:34;0.63;;;0.45;;
46348;SDS011;32057;47.830;19.046;2022-08-11T08:12:19;0.20;;;0.20;;
46348;SDS011;32057;47.830;19.046;2022-08-11T08:15:06;0.50;;;0.50;;
46348;SDS011;32057;47.830;19.046;2022-08-11T08:17:52;0.40;;;0.40;;
46348;SDS011;32057;47.830;19.046;2022-08-11T08:20:26;0.40;;;0.40;;
46348;SDS011;32057;47.830;19.046;2022-08-11T08:23:00;0.73;;;0.50;;
46348;SDS011;32057;47.830;19.046;2022-08-11T08:25:27;0.35;;;0.35;;
46348;SDS011;32057;47.830;19.046;2022-08-11T08:27:55;1.67;;;0.68;;
46348;SDS011;32057;47.830;19.046;2022-08-11T08:30:23;1.05;;;0.77;;
46348;SDS011;32057;47.830;19.046;2022-08-11T08:33:10;0.52;;;0.52;;
46348;SDS011;32057;47.830;19.046;2022-08-11T08:35:37;0.35;;;0.35;;
46348;SDS011;32057;47.830;19.046;2022-08-11T08:38:05;0.73;;;0.73;;
46348;SDS011;32057;47.830;19.046;2022-08-11T08:40:31;0.60;;;0.57;;
46348;SDS011;32057;47.830;19.046;2022-08-11T08:43:04;1.20;;;0.50;;
46348;SDS011;32057;47.830;19.046;2022-08-11T08:45:34;0.95;;;0.95;;
46348;SDS011;32057;47.830;19.046;2022-08-11T08:50:33;0.50;;;0.50;;
46348;SDS011;32057;47.830;19.046;2022-08-11T08:53:20;0.70;;;0.52;;
46348;SDS011;32057;47.830;19.046;2022-08-11T08:55:53;0.50;;;0.50;;
46348;SDS011;32057;47.830;19.046;2022-08-11T08:58:21;0.63;;;0.63;;
46348;SDS011;32057;47.830;19.046;2022-08-11T09:00:49;1.95;;;0.70;;
46348;SDS011;32057;47.830;19.046;2022-08-11T09:03:18;0.40;;;0.40;;
46348;SDS011;32057;47.830;19.046;2022-08-11T09:05:46;0.57;;;0.57;;
46348;SDS011;32057;47.830;19.046;2022-08-11T09:08:13;0.43;;;0.43;;
46348;SDS011;32057;47.830;19.046;2022-08-11T09:10:44;0.57;;;0.30;;
46348;SDS011;32057;47.830;19.046;2022-08-11T09:13:12;0.35;;;0.35;;
46348;SDS011;32057;47.830;19.046;2022-08-11T09:15:39;0.40;;;0.40;;
46348;SDS011;32057;47.830;19.046;2022-08-11T09:18:05;1.13;;;1.02;;
46348;SDS011;32057;47.830;19.046;2022-08-11T09:20:34;0.32;;;0.32;;
46348;SDS011;32057;47.830;19.046;2022-08-11T09:23:03;0.50;;;0.50;;
46348;SDS011;32057;47.830;19.046;2022-08-11T09:25:58;0.60;;;0.60;;
46348;SDS011;32057;47.830;19.046;2022-08-11T09:31:09;0.43;;;0.43;;
46348;SDS011;32057;47.830;19.046;2022-08-11T09:33:37;0.20;;;0.20;;
46348;SDS011;32057;47.830;19.046;2022-08-11T09:36:04;0.50;;;0.50;;
46348;SDS011;32057;47.830;19.046;2022-08-11T09:38:50;0.38;;;0.30;;
46348;SDS011;32057;47.830;19.046;2022-08-11T09:41:35;0.68;;;0.52;;
46348;SDS011;32057;47.830;19.046;2022-08-11T09:44:03;1.13;;;0.47;;
46348;SDS011;32057;47.830;19.046;2022-08-11T09:46:48;0.50;;;0.50;;
46348;SDS011;32057;47.830;19.046;2022-08-11T09:49:17;0.95;;;0.65;;
46348;SDS011;32057;47.830;19.046;2022-08-11T09:51:45;0.45;;;0.45;;
46348;SDS011;32057;47.830;19.046;2022-08-11T09:54:12;0.77;;;0.50;;
46348;SDS011;32057;47.830;19.046;2022-08-11T09:56:38;0.77;;;0.57;;
46348;SDS011;32057;47.830;19.046;2022-08-11T09:59:22;0.60;;;0.50;;
46348;SDS011;32057;47.830;19.046;2022-08-11T10:01:56;0.40;;;0.40;;
46348;SDS011;32057;47.830;19.046;2022-08-11T10:04:25;0.40;;;0.40;;
46348;SDS011;32057;47.830;19.046;2022-08-11T10:07:40;0.30;;;0.30;;
46348;SDS011;32057;47.830;19.046;2022-08-11T10:10:14;0.40;;;0.40;;
46348;SDS011;32057;47.830;19.046;2022-08-11T10:12:46;0.40;;;0.40;;
46348;SDS011;32057;47.830;19.046;2022-08-11T10:15:15;0.30;;;0.30;;
46348;SDS011;32057;47.830;19.046;2022-08-11T10:18:01;0.30;;;0.30;;
46348;SDS011;32057;47.830;19.046;2022-08-11T10:20:50;0.47;;;0.47;;
46348;SDS011;32057;47.830;19.046;2022-08-11T10:23:19;0.50;;;0.50;;
46348;SDS011;32057;47.830;19.046;2022-08-11T10:26:04;0.30;;;0.30;;
46348;SDS011;32057;47.830;19.046;2022-08-11T10:28:50;0.40;;;0.40;;
46348;SDS011;32057;47.830;19.046;2022-08-11T10:31:18;0.75;;;0.50;;
46348;SDS011;32057;47.830;19.046;2022-08-11T10:34:03;0.63;;;0.40;;
46348;SDS011;32057;47.830;19.046;2022-08-11T10:36:38;0.70;;;0.70;;
46348;SDS011;32057;47.830;19.046;2022-08-11T10:39:10;0.50;;;0.50;;
46348;SDS011;32057;47.830;19.046;2022-08-11T10:41:41;0.30;;;0.30;;
46348;SDS011;32057;47.830;19.046;2022-08-11T10:44:27;0.40;;;0.40;;
46348;SDS011;32057;47.830;19.046;2022-08-11T10:46:57;0.40;;;0.40;;
46348;SDS011;32057;47.830;19.046;2022-08-11T10:49:42;0.73;;;0.50;;
46348;SDS011;32057;47.830;19.046;2022-08-11T10:52:08;2.67;;;1.48;;
46348;SDS011;32057;47.830;19.046;2022-08-11T10:54:52;1.52;;;0.57;;
46348;SDS011;32057;47.830;19.046;2022-08-11T10:57:37;0.88;;;0.60;;
46348;SDS011;32057;47.830;19.046;2022-08-11T11:00:21;0.50;;;0.50;;
46348;SDS011;32057;47.830;19.046;2022-08-11T11:02:48;0.60;;;0.60;;
46348;SDS011;32057;47.830;19.046;2022-08-11T11:05:23;0.45;;;0.30;;
46348;SDS011;32057;47.830;19.046;2022-08-11T11:08:14;0.50;;;0.50;;
46348;SDS011;32057;47.830;19.046;2022-08-11T11:11:02;0.50;;;0.50;;
46348;SDS011;32057;47.830;19.046;2022-08-11T11:13:31;0.38;;;0.38;;
46348;SDS011;32057;47.830;19.046;2022-08-11T11:16:17;0.30;;;0.30;;
46348;SDS011;32057;47.830;19.046;2022-08-11T11:19:02;0.80;;;0.73;;
46348;SDS011;32057;47.830;19.046;2022-08-11T11:21:32;0.75;;;0.75;;
46348;SDS011;32057;47.830;19.046;2022-08-11T11:35:25;0.30;;;0.30;;
46348;SDS011;32057;47.830;19.046;2022-08-11T11:37:54;0.70;;;0.50;;
46348;SDS011;32057;47.830;19.046;2022-08-11T11:40:21;0.50;;;0.50;;
46348;SDS011;32057;47.830;19.046;2022-08-11T11:42:49;0.40;;;0.40;;
46348;SDS011;32057;47.830;19.046;2022-08-11T11:45:17;0.30;;;0.30;;
46348;SDS011;32057;47.830;19.046;2022-08-11T11:47:45;1.10;;;0.90;;
46348;SDS011;32057;47.830;19.046;2022-08-11T11:50:16;0.38;;;0.35;;
46348;SDS011;32057;47.830;19.046;2022-08-11T11:52:48;0.67;;;0.67;;
46348;SDS011;32057;47.830;19.046;2022-08-11T11:55:16;0.40;;;0.40;;
46348;SDS011;32057;47.830;19.046;2022-08-11T11:57:42;1.08;;;0.55;;
46348;SDS011;32057;47.830;19.046;2022-08-11T12:00:27;0.30;;;0.30;;
46348;SDS011;32057;47.830;19.046;2022-08-11T12:03:12;0.47;;;0.38;;
46348;SDS011;32057;47.830;19.046;2022-08-11T12:05:38;0.40;;;0.40;;
46348;SDS011;32057;47.830;19.046;2022-08-11T12:08:07;0.30;;;0.30;;
46348;SDS011;32057;47.830;19.046;2022-08-11T12:10:43;0.30;;;0.30;;
46348;SDS011;32057;47.830;19.046;2022-08-11T12:13:15;0.40;;;0.40;;
46348;SDS011;32057;47.830;19.046;2022-08-11T12:16:00;0.30;;;0.30;;
46348;SDS011;32057;47.830;19.046;2022-08-11T12:18:34;1.80;;;1.27;;
46348;SDS011;32057;47.830;19.046;2022-08-11T12:21:01;0.32;;;0.30;;
46348;SDS011;32057;47.830;19.046;2022-08-11T12:23:28;0.40;;;0.32;;
46348;SDS011;32057;47.830;19.046;2022-08-11T12:26:13;0.30;;;0.30;;
46348;SDS011;32057;47.830;19.046;2022-08-11T12:28:59;0.32;;;0.32;;
46348;SDS011;32057;47.830;19.046;2022-08-11T12:31:27;2.92;;;0.73;;
46348;SDS011;32057;47.830;19.046;2022-08-11T12:33:59;0.30;;;0.30;;
46348;SDS011;32057;47.830;19.046;2022-08-11T12:36:38;0.60;;;0.60;;
46348;SDS011;32057;47.830;19.046;2022-08-11T12:39:12;0.70;;;0.38;;
46348;SDS011;32057;47.830;19.046;2022-08-11T12:41:44;0.22;;;0.22;;
46348;SDS011;32057;47.830;19.046;2022-08-11T12:44:30;0.30;;;0.30;;
46348;SDS011;32057;47.830;19.046;2022-08-11T12:47:15;0.70;;;0.50;;
46348;SDS011;32057;47.830;19.046;2022-08-11T12:49:46;0.57;;;0.30;;
46348;SDS011;32057;47.830;19.046;2022-08-11T12:52:36;0.63;;;0.63;;
46348;SDS011;32057;47.830;19.046;2022-08-11T12:55:15;1.02;;;0.45;;
46348;SDS011;32057;47.830;19.046;2022-08-11T12:58:04;0.50;;;0.50;;
46348;SDS011;32057;47.830;19.046;2022-08-11T13:00:42;0.63;;;0.45;;
46348;SDS011;32057;47.830;19.046;2022-08-11T13:03:27;0.30;;;0.30;;
46348;SDS011;32057;47.830;19.046;2022-08-11T13:06:12;0.40;;;0.40;;
46348;SDS011;32057;47.830;19.046;2022-08-11T13:08:38;0.30;;;0.30;;
46348;SDS011;32057;47.830;19.046;2022-08-11T13:11:05;0.47;;;0.40;;
46348;SDS011;32057;47.830;19.046;2022-08-11T13:13:50;0.40;;;0.40;;
46348;SDS011;32057;47.830;19.046;2022-08-11T13:16:20;0.20;;;0.20;;
46348;SDS011;32057;47.830;19.046;2022-08-11T13:18:48;0.30;;;0.30;;
46348;SDS011;32057;47.830;19.046;2022-08-11T13:21:14;0.30;;;0.30;;
46348;SDS011;32057;47.830;19.046;2022-08-11T13:23:41;0.47;;;0.47;;
46348;SDS011;32057;47.830;19.046;2022-08-11T13:26:07;0.40;;;0.40;;
46348;SDS011;32057;47.830;19.046;2022-08-11T13:28:33;0.55;;;0.50;;
46348;SDS011;32057;47.830;19.046;2022-08-11T13:31:03;0.35;;;0.35;;
46348;SDS011;32057;47.830;19.046;2022-08-11T13:33:54;1.23;;;0.70;;
46348;SDS011;32057;47.830;19.046;2022-08-11T13:36:21;0.38;;;0.38;;
46348;SDS011;32057;47.830;19.046;2022-08-11T13:38:51;0.40;;;0.40;;
46348;SDS011;32057;47.830;19.046;2022-08-11T13:41:18;0.63;;;0.40;;
46348;SDS011;32057;47.830;19.046;2022-08-11T13:44:08;0.30;;;0.30;;
46348;SDS011;32057;47.830;19.046;2022-08-11T13:46:36;0.55;;;0.55;;
46348;SDS011;32057;47.830;19.046;2022-08-11T13:49:02;0.43;;;0.43;;
46348;SDS011;32057;47.830;19.046;2022-08-11T13:51:30;0.20;;;0.20;;
46348;SDS011;32057;47.830;19.046;2022-08-11T13:54:06;0.20;;;0.20;;
46348;SDS011;32057;47.830;19.046;2022-08-11T13:56:45;0.30;;;0.30;;
46348;SDS011;32057;47.830;19.046;2022-08-11T13:59:12;0.30;;;0.30;;
46348;SDS011;32057;47.830;19.046;2022-08-11T14:01:46;0.30;;;0.30;;
46348;SDS011;32057;47.830;19.046;2022-08-11T14:04:25;0.20;;;0.20;;
46348;SDS011;32057;47.830;19.046;2022-08-11T14:06:57;0.40;;;0.40;;
46348;SDS011;32057;47.830;19.046;2022-08-11T14:09:27;0.38;;;0.38;;
46348;SDS011;32057;47.830;19.046;2022-08-11T14:11:57;0.30;;;0.30;;
46348;SDS011;32057;47.830;19.046;2022-08-11T14:14:46;0.73;;;0.40;;
46348;SDS011;32057;47.830;19.046;2022-08-11T14:17:16;0.30;;;0.30;;
46348;SDS011;32057;47.830;19.046;2022-08-11T14:19:46;0.30;;;0.30;;
46348;SDS011;32057;47.830;19.046;2022-08-11T14:22:16;0.47;;;0.47;;
46348;SDS011;32057;47.830;19.046;2022-08-11T14:24:42;0.30;;;0.30;;
46348;SDS011;32057;47.830;19.046;2022-08-11T14:27:16;0.20;;;0.20;;
46348;SDS011;32057;47.830;19.046;2022-08-11T14:29:42;0.25;;;0.25;;
46348;SDS011;32057;47.830;19.046;2022-08-11T14:32:09;0.20;;;0.20;;
46348;SDS011;32057;47.830;19.046;2022-08-11T14:34:41;0.43;;;0.40;;
46348;SDS011;32057;47.830;19.046;2022-08-11T14:37:09;0.30;;;0.30;;
46348;SDS011;32057;47.830;19.046;2022-08-11T14:39:39;0.28;;;0.22;;
46348;SDS011;32057;47.830;19.046;2022-08-11T14:42:08;0.30;;;0.30;;
46348;SDS011;32057;47.830;19.046;2022-08-11T14:45:03;0.32;;;0.32;;
46348;SDS011;32057;47.830;19.046;2022-08-11T14:47:51;0.30;;;0.30;;
46348;SDS011;32057;47.830;19.046;2022-08-11T14:50:21;0.25;;;0.25;;
46348;SDS011;32057;47.830;19.046;2022-08-11T14:52:54;0.20;;;0.20;;
46348;SDS011;32057;47.830;19.046;2022-08-11T14:55:24;0.30;;;0.30;;
46348;SDS011;32057;47.830;19.046;2022-08-11T14:58:12;0.30;;;0.30;;
46348;SDS011;32057;47.830;19.046;2022-08-11T15:00:41;0.22;;;0.22;;
46348;SDS011;32057;47.830;19.046;2022-08-11T15:03:07;0.57;;;0.40;;
46348;SDS011;32057;47.830;19.046;2022-08-11T15:08:32;0.40;;;0.40;;
46348;SDS011;32057;47.830;19.046;2022-08-11T15:11:19;0.40;;;0.40;;
46348;SDS011;32057;47.830;19.046;2022-08-11T15:14:05;0.82;;;0.82;;
46348;SDS011;32057;47.830;19.046;2022-08-11T15:16:32;0.30;;;0.30;;
46348;SDS011;32057;47.830;19.046;2022-08-11T15:19:19;0.30;;;0.30;;
46348;SDS011;32057;47.830;19.046;2022-08-11T15:21:45;0.75;;;0.47;;
46348;SDS011;32057;47.830;19.046;2022-08-11T15:24:30;0.20;;;0.20;;
46348;SDS011;32057;47.830;19.046;2022-08-11T15:26:59;0.35;;;0.35;;
46348;SDS011;32057;47.830;19.046;2022-08-11T15:29:46;0.20;;;0.20;;
46348;SDS011;32057;47.830;19.046;2022-08-11T15:32:33;0.95;;;0.40;;
46348;SDS011;32057;47.830;19.046;2022-08-11T15:35:22;0.30;;;0.30;;
46348;SDS011;32057;47.830;19.046;2022-08-11T15:38:07;0.20;;;0.20;;
46348;SDS011;32057;47.830;19.046;2022-08-11T15:40:38;0.30;;;0.30;;
46348;SDS011;32057;47.830;19.046;2022-08-11T15:46:29;0.38;;;0.35;;
46348;SDS011;32057;47.830;19.046;2022-08-11T15:49:17;0.20;;;0.20;;
46348;SDS011;32057;47.830;19.046;2022-08-11T15:52:06;0.38;;;0.35;;
46348;SDS011;32057;47.830;19.046;2022-08-11T15:54:37;0.45;;;0.40;;
46348;SDS011;32057;47.830;19.046;2022-08-11T15:57:06;0.30;;;0.30;;
46348;SDS011;32057;47.830;19.046;2022-08-11T15:59:33;0.38;;;0.38;;
46348;SDS011;32057;47.830;19.046;2022-08-11T16:02:19;0.45;;;0.45;;
46348;SDS011;32057;47.830;19.046;2022-08-11T16:04:49;0.40;;;0.40;;
46348;SDS011;32057;47.830;19.046;2022-08-11T16:07:18;0.35;;;0.22;;
46348;SDS011;32057;47.830;19.046;2022-08-11T16:09:51;0.30;;;0.30;;
46348;SDS011;32057;47.830;19.046;2022-08-11T16:12:21;1.48;;;0.40;;
46348;SDS011;32057;47.830;19.046;2022-08-11T16:14:53;0.40;;;0.40;;
46348;SDS011;32057;47.830;19.046;2022-08-11T16:17:43;0.43;;;0.43;;
46348;SDS011;32057;47.830;19.046;2022-08-11T16:20:13;1.90;;;0.47;;
46348;SDS011;32057;47.830;19.046;2022-08-11T16:22:41;0.40;;;0.40;;
46348;SDS011;32057;47.830;19.046;2022-08-11T16:25:13;0.25;;;0.25;;
46348;SDS011;32057;47.830;19.046;2022-08-11T16:27:48;1.05;;;0.95;;
46348;SDS011;32057;47.830;19.046;2022-08-11T16:30:16;0.28;;;0.28;;
46348;SDS011;32057;47.830;19.046;2022-08-11T16:32:43;0.32;;;0.32;;
46348;SDS011;32057;47.830;19.046;2022-08-11T16:35:15;0.32;;;0.32;;
46348;SDS011;32057;47.830;19.046;2022-08-11T16:38:02;0.20;;;0.20;;
46348;SDS011;32057;47.830;19.046;2022-08-11T16:40:49;0.20;;;0.20;;
46348;SDS011;32057;47.830;19.046;2022-08-11T16:43:16;0.52;;;0.40;;
46348;SDS011;32057;47.830;19.046;2022-08-11T16:46:03;0.40;;;0.40;;
46348;SDS011;32057;47.830;19.046;2022-08-11T16:48:48;0.55;;;0.40;;
46348;SDS011;32057;47.830;19.046;2022-08-11T16:51:17;0.30;;;0.30;;
46348;SDS011;32057;47.830;19.046;2022-08-11T16:53:45;0.50;;;0.47;;
46348;SDS011;32057;47.830;19.046;2022-08-11T16:56:13;0.57;;;0.57;;
46348;SDS011;32057;47.830;19.046;2022-08-11T16:58:44;0.40;;;0.30;;
46348;SDS011;32057;47.830;19.046;2022-08-11T17:01:32;0.40;;;0.40;;
46348;SDS011;32057;47.830;19.046;2022-08-11T17:04:08;0.40;;;0.40;;
46348;SDS011;32057;47.830;19.046;2022-08-11T17:07:02;0.35;;;0.35;;
46348;SDS011;32057;47.830;19.046;2022-08-11T17:09:47;0.40;;;0.40;;
46348;SDS011;32057;47.830;19.046;2022-08-11T17:12:33;0.40;;;0.40;;
46348;SDS011;32057;47.830;19.046;2022-08-11T17:15:20;0.50;;;0.50;;
46348;SDS011;32057;47.830;19.046;2022-08-11T17:18:05;0.47;;;0.47;;
46348;SDS011;32057;47.830;19.046;2022-08-11T17:20:34;0.65;;;0.40;;
46348;SDS011;32057;47.830;19.046;2022-08-11T17:23:00;0.40;;;0.40;;
46348;SDS011;32057;47.830;19.046;2022-08-11T17:25:46;0.40;;;0.40;;
46348;SDS011;32057;47.830;19.046;2022-08-11T17:28:13;0.52;;;0.52;;
46348;SDS011;32057;47.830;19.046;2022-08-11T17:30:41;0.40;;;0.40;;
46348;SDS011;32057;47.830;19.046;2022-08-11T17:33:26;0.22;;;0.22;;
46348;SDS011;32057;47.830;19.046;2022-08-11T17:36:12;0.68;;;0.50;;
46348;SDS011;32057;47.830;19.046;2022-08-11T17:38:40;0.45;;;0.35;;
46348;SDS011;32057;47.830;19.046;2022-08-11T17:41:07;1.13;;;0.50;;
46348;SDS011;32057;47.830;19.046;2022-08-11T17:43:52;0.80;;;0.68;;
46348;SDS011;32057;47.830;19.046;2022-08-11T17:46:38;0.45;;;0.45;;
46348;SDS011;32057;47.830;19.046;2022-08-11T17:49:24;0.55;;;0.55;;
46348;SDS011;32057;47.830;19.046;2022-08-11T17:51:52;0.30;;;0.30;;
46348;SDS011;32057;47.830;19.046;2022-08-11T17:54:37;0.30;;;0.30;;
46348;SDS011;32057;47.830;19.046;2022-08-11T17:57:34;1.02;;;0.45;;
46348;SDS011;32057;47.830;19.046;2022-08-11T18:00:19;0.43;;;0.43;;
46348;SDS011;32057;47.830;19.046;2022-08-11T18:02:46;0.47;;;0.40;;
46348;SDS011;32057;47.830;19.046;2022-08-11T18:05:31;1.08;;;0.43;;
46348;SDS011;32057;47.830;19.046;2022-08-11T18:08:00;0.52;;;0.52;;
46348;SDS011;32057;47.830;19.046;2022-08-11T18:10:48;0.50;;;0.50;;
46348;SDS011;32057;47.830;19.046;2022-08-11T18:13:34;0.38;;;0.32;;
46348;SDS011;32057;47.830;19.046;2022-08-11T18:16:20;0.52;;;0.50;;
46348;SDS011;32057;47.830;19.046;2022-08-11T18:19:05;0.30;;;0.30;;
46348;SDS011;32057;47.830;19.046;2022-08-11T18:21:50;0.47;;;0.47;;
46348;SDS011;32057;47.830;19.046;2022-08-11T18:24:39;0.40;;;0.40;;
46348;SDS011;32057;47.830;19.046;2022-08-11T18:27:29;0.30;;;0.30;;
46348;SDS011;32057;47.830;19.046;2022-08-11T18:30:15;0.57;;;0.57;;
46348;SDS011;32057;47.830;19.046;2022-08-11T18:33:00;25.50;;;2.90;;
46348;SDS011;32057;47.830;19.046;2022-08-11T18:35:47;0.38;;;0.38;;
46348;SDS011;32057;47.830;19.046;2022-08-11T18:38:35;0.30;;;0.30;;
46348;SDS011;32057;47.830;19.046;2022-08-11T18:41:20;0.40;;;0.40;;
46348;SDS011;32057;47.830;19.046;2022-08-11T18:44:05;0.85;;;0.40;;
46348;SDS011;32057;47.830;19.046;2022-08-11T18:46:51;0.52;;;0.52;;
46348;SDS011;32057;47.830;19.046;2022-08-11T18:49:38;0.20;;;0.20;;
46348;SDS011;32057;47.830;19.046;2022-08-11T18:52:25;0.30;;;0.30;;
46348;SDS011;32057;47.830;19.046;2022-08-11T18:55:12;0.20;;;0.20;;
46348;SDS011;32057;47.830;19.046;2022-08-11T18:58:00;0.20;;;0.20;;